createdAt,value
2023-05-22T00:00:44.902Z,2.90
2023-05-22T00:01:44.626Z,2.90
2023-05-22T00:02:45.102Z,2.90
2023-05-22T00:03:44.592Z,2.80
2023-05-22T00:04:44.813Z,2.90
2023-05-22T00:05:44.699Z,2.50
2023-05-22T00:06:44.617Z,2.90
2023-05-22T00:07:44.706Z,3.00
2023-05-22T00:08:50.760Z,2.50
2023-05-22T00:09:44.640Z,2.70
2023-05-22T00:10:44.511Z,3.40
2023-05-22T00:11:44.697Z,2.60
2023-05-22T00:12:44.524Z,2.80
2023-05-22T00:13:44.562Z,3.50
2023-05-22T00:14:44.466Z,2.50
2023-05-22T00:15:44.576Z,2.60
2023-05-22T00:16:44.483Z,2.80
2023-05-22T00:17:44.653Z,3.00
2023-05-22T00:18:44.434Z,3.10
2023-05-22T00:19:44.506Z,2.50
2023-05-22T00:20:44.386Z,2.70
2023-05-22T00:21:44.596Z,2.90
2023-05-22T00:22:44.346Z,3.40
2023-05-22T00:23:44.428Z,3.20
2023-05-22T00:24:44.371Z,3.10
2023-05-22T00:25:44.432Z,3.10
2023-05-22T00:26:44.424Z,3.00
2023-05-22T00:27:44.337Z,3.20
2023-05-22T00:28:44.459Z,2.90
2023-05-22T00:29:44.288Z,2.80
2023-05-22T00:30:44.474Z,2.70
2023-05-22T00:31:44.257Z,3.10
2023-05-22T00:32:44.587Z,2.70
2023-05-22T00:33:44.281Z,2.90
2023-05-22T00:34:44.347Z,2.80
2023-05-22T00:35:44.244Z,2.80
2023-05-22T00:36:44.423Z,2.80
2023-05-22T00:37:44.218Z,3.00
2023-05-22T00:38:44.318Z,3.00
2023-05-22T00:39:44.181Z,2.90
2023-05-22T00:40:44.232Z,2.60
2023-05-22T00:41:44.134Z,2.90
2023-05-22T00:42:44.239Z,2.80
2023-05-22T00:43:44.150Z,3.10
2023-05-22T00:44:44.158Z,2.60
2023-05-22T00:45:44.084Z,3.10
2023-05-22T00:46:44.242Z,2.80
2023-05-22T00:47:44.120Z,4.00
2023-05-22T00:48:44.126Z,3.10
2023-05-22T00:49:44.071Z,2.70
2023-05-22T00:50:44.090Z,2.50
2023-05-22T00:51:44.001Z,2.90
2023-05-22T00:52:44.115Z,3.30
2023-05-22T00:53:44.020Z,3.00
2023-05-22T00:54:44.119Z,2.80
2023-05-22T00:55:43.982Z,2.90
2023-05-22T00:56:44.049Z,2.30
2023-05-22T00:57:43.934Z,2.90
2023-05-22T00:58:44.155Z,2.70
2023-05-22T00:59:43.948Z,3.40
2023-05-22T01:00:43.958Z,2.50
2023-05-22T01:01:43.914Z,2.60
2023-05-22T01:02:44.076Z,2.70
2023-05-22T01:03:43.944Z,2.90
2023-05-22T01:04:44.040Z,2.90
2023-05-22T01:05:43.859Z,2.80
2023-05-22T01:06:44.006Z,2.90
2023-05-22T01:07:44.001Z,2.90
2023-05-22T01:08:43.789Z,3.00
2023-05-22T01:09:44.028Z,3.00
2023-05-22T01:10:43.783Z,2.70
2023-05-22T01:11:43.847Z,3.40
2023-05-22T01:12:43.848Z,2.90
2023-05-22T01:13:43.742Z,3.40
2023-05-22T01:14:43.897Z,2.90
2023-05-22T01:15:43.696Z,2.70
2023-05-22T01:16:43.865Z,2.70
2023-05-22T01:17:43.745Z,2.90
2023-05-22T01:18:43.789Z,3.00
2023-05-22T01:19:43.646Z,2.90
2023-05-22T01:20:43.694Z,2.70
2023-05-22T01:21:43.637Z,3.00
2023-05-22T01:22:43.848Z,3.10
2023-05-22T01:23:43.609Z,3.10
2023-05-22T01:24:43.718Z,2.60
2023-05-22T01:25:43.585Z,2.90
2023-05-22T01:26:43.643Z,2.80
2023-05-22T01:27:43.579Z,2.70
2023-05-22T01:28:43.639Z,2.80
2023-05-22T01:29:43.519Z,3.10
2023-05-22T01:30:43.672Z,3.30
2023-05-22T01:31:43.502Z,3.00
2023-05-22T01:32:43.718Z,3.10
2023-05-22T01:33:43.598Z,3.80
2023-05-22T01:34:43.660Z,3.40
2023-05-22T01:35:43.452Z,3.10
2023-05-22T01:36:43.520Z,3.50
2023-05-22T01:37:43.424Z,3.60
2023-05-22T01:38:43.613Z,3.50
2023-05-22T01:39:43.409Z,3.40
2023-05-22T01:40:43.623Z,3.40
2023-05-22T01:41:43.375Z,4.00
2023-05-22T01:42:43.468Z,4.10
2023-05-22T01:43:43.375Z,4.20
2023-05-22T01:44:43.486Z,4.30
2023-05-22T01:45:43.396Z,3.80
2023-05-22T01:46:43.372Z,4.00
2023-05-22T01:47:43.320Z,4.40
2023-05-22T01:48:43.376Z,4.30
2023-05-22T01:49:43.340Z,4.00
2023-05-22T01:50:43.494Z,4.10
2023-05-22T01:51:43.257Z,4.00
2023-05-22T01:52:43.311Z,4.00
2023-05-22T01:53:43.214Z,4.00
2023-05-22T01:54:43.437Z,4.00
2023-05-22T01:55:43.252Z,3.30
2023-05-22T01:56:43.425Z,3.90
2023-05-22T01:57:43.177Z,3.80
2023-05-22T01:58:43.240Z,3.40
2023-05-22T01:59:43.135Z,4.50
2023-05-22T02:00:43.300Z,4.30
2023-05-22T02:01:43.254Z,4.30
2023-05-22T02:02:43.308Z,4.20
2023-05-22T02:03:43.168Z,3.80
2023-05-22T02:04:43.292Z,4.40
2023-05-22T02:05:43.093Z,4.30
2023-05-22T02:06:43.193Z,4.20
2023-05-22T02:07:43.040Z,4.20
2023-05-22T02:08:43.108Z,4.20
2023-05-22T02:09:43.242Z,4.20
2023-05-22T02:10:43.018Z,4.20
2023-05-22T02:11:43.144Z,4.30
2023-05-22T02:12:42.964Z,4.50
2023-05-22T02:13:43.065Z,4.50
2023-05-22T02:14:43.075Z,4.90
2023-05-22T02:15:43.050Z,4.50
2023-05-22T02:16:43.054Z,5.30
2023-05-22T02:17:42.988Z,4.90
2023-05-22T02:18:42.974Z,3.70
2023-05-22T02:19:42.916Z,4.60
2023-05-22T02:20:43.044Z,4.30
2023-05-22T02:21:42.910Z,3.60
2023-05-22T02:22:42.893Z,4.40
2023-05-22T02:23:42.913Z,4.00
2023-05-22T02:24:42.927Z,4.30
2023-05-22T02:25:42.842Z,4.20
2023-05-22T02:26:43.048Z,4.40
2023-05-22T02:27:42.796Z,3.90
2023-05-22T02:28:42.862Z,4.20
2023-05-22T02:29:42.805Z,4.30
2023-05-22T02:30:42.848Z,4.10
2023-05-22T02:31:42.800Z,4.20
2023-05-22T02:32:42.945Z,4.10
2023-05-22T02:33:42.730Z,3.90
2023-05-22T02:34:42.769Z,3.80
2023-05-22T02:35:42.704Z,3.90
2023-05-22T02:36:42.896Z,4.00
2023-05-22T02:37:42.703Z,4.30
2023-05-22T02:38:42.691Z,3.80
2023-05-22T02:39:42.644Z,4.30
2023-05-22T02:40:42.764Z,3.90
2023-05-22T02:41:42.613Z,4.30
2023-05-22T02:42:42.795Z,3.70
2023-05-22T02:43:42.618Z,4.20
2023-05-22T02:44:42.646Z,3.80
2023-05-22T02:45:42.763Z,4.40
2023-05-22T02:46:42.574Z,4.70
2023-05-22T02:47:42.721Z,3.80
2023-05-22T02:48:42.527Z,3.40
2023-05-22T02:49:42.686Z,4.00
2023-05-22T02:50:42.472Z,3.40
2023-05-22T02:51:42.604Z,3.80
2023-05-22T02:52:42.495Z,3.80
2023-05-22T02:53:42.727Z,3.20
2023-05-22T02:54:42.419Z,3.80
2023-05-22T02:55:42.542Z,3.60
2023-05-22T02:56:42.385Z,3.70
2023-05-22T02:57:42.550Z,3.10
2023-05-22T02:58:42.398Z,3.60
2023-05-22T02:59:42.543Z,3.30
2023-05-22T03:00:42.367Z,3.50
2023-05-22T03:01:42.504Z,3.10
2023-05-22T03:02:42.353Z,3.70
2023-05-22T03:03:42.521Z,3.60
2023-05-22T03:04:42.312Z,4.20
2023-05-22T03:05:42.404Z,3.70
2023-05-22T03:06:42.515Z,3.40
2023-05-22T03:07:42.299Z,3.30
2023-05-22T03:08:42.448Z,3.40
2023-05-22T03:09:42.286Z,3.30
2023-05-22T03:10:42.306Z,3.70
2023-05-22T03:11:42.339Z,3.40
2023-05-22T03:12:42.239Z,3.80
2023-05-22T03:13:42.348Z,3.60
2023-05-22T03:14:42.194Z,3.70
2023-05-22T03:15:42.263Z,3.70
2023-05-22T03:16:42.373Z,3.50
2023-05-22T03:17:42.207Z,3.60
2023-05-22T03:18:42.386Z,3.70
2023-05-22T03:19:42.148Z,3.60
2023-05-22T03:20:42.229Z,3.30
2023-05-22T03:21:42.134Z,3.40
2023-05-22T03:22:42.192Z,3.90
2023-05-22T03:23:42.076Z,3.50
2023-05-22T03:24:42.207Z,3.20
2023-05-22T03:25:42.059Z,3.80
2023-05-22T03:26:42.260Z,3.50
2023-05-22T03:27:42.048Z,3.90
2023-05-22T03:28:42.157Z,3.50
2023-05-22T03:29:42.005Z,3.50
2023-05-22T03:30:42.237Z,3.80
2023-05-22T03:31:41.999Z,5.10
2023-05-22T03:32:42.130Z,4.40
2023-05-22T03:33:41.980Z,3.40
2023-05-22T03:34:42.077Z,4.00
2023-05-22T03:35:41.946Z,4.20
2023-05-22T03:36:42.036Z,3.90
2023-05-22T03:37:42.012Z,4.10
2023-05-22T03:38:41.876Z,4.10
2023-05-22T03:39:42.013Z,3.80
2023-05-22T03:40:42.052Z,4.00
2023-05-22T03:41:42.040Z,3.80
2023-05-22T03:42:41.835Z,3.80
2023-05-22T03:43:44.752Z,3.70
2023-05-22T03:44:41.788Z,3.80
2023-05-22T03:45:42.101Z,3.50
2023-05-22T03:46:41.768Z,3.80
2023-05-22T03:47:41.937Z,3.80
2023-05-22T03:48:41.768Z,4.20
2023-05-22T03:49:41.986Z,4.00
2023-05-22T03:50:41.877Z,4.10
2023-05-22T03:51:41.801Z,3.60
2023-05-22T03:52:41.719Z,4.10
2023-05-22T03:53:41.852Z,3.90
2023-05-22T03:54:41.661Z,4.00
2023-05-22T03:55:41.830Z,3.90
2023-05-22T03:56:41.656Z,3.80
2023-05-22T03:57:41.836Z,3.70
2023-05-22T03:58:41.662Z,4.50
2023-05-22T03:59:41.855Z,4.20
2023-05-22T04:00:41.602Z,4.20
2023-05-22T04:01:41.772Z,4.10
2023-05-22T04:02:41.629Z,4.60
2023-05-22T04:03:41.720Z,4.50
2023-05-22T04:04:41.586Z,4.30
2023-05-22T04:05:41.704Z,4.30
2023-05-22T04:06:41.517Z,4.40
2023-05-22T04:07:41.706Z,4.30
2023-05-22T04:08:41.662Z,3.90
2023-05-22T04:09:41.600Z,4.80
2023-05-22T04:10:41.740Z,4.30
2023-05-22T04:11:41.481Z,4.30
2023-05-22T04:12:41.527Z,4.10
2023-05-22T04:13:41.555Z,4.00
2023-05-22T04:14:41.478Z,4.40
2023-05-22T04:15:41.670Z,4.30
2023-05-22T04:16:41.399Z,4.90
2023-05-22T04:17:41.628Z,4.70
2023-05-22T04:18:41.470Z,4.50
2023-05-22T04:19:41.437Z,3.70
2023-05-22T04:20:41.777Z,3.90
2023-05-22T04:21:41.352Z,4.30
2023-05-22T04:22:41.485Z,4.50
2023-05-22T04:23:41.321Z,4.60
2023-05-22T04:24:41.551Z,4.10
2023-05-22T04:25:41.311Z,4.20
2023-05-22T04:26:42.647Z,4.40
2023-05-22T04:27:41.242Z,4.70
2023-05-22T04:28:41.444Z,4.10
2023-05-22T04:29:41.235Z,3.90
2023-05-22T04:30:41.828Z,4.60
2023-05-22T04:31:41.262Z,4.50
2023-05-22T04:32:41.550Z,3.70
2023-05-22T04:33:41.166Z,3.80
2023-05-22T04:34:41.280Z,4.60
2023-05-22T04:35:41.172Z,4.20
2023-05-22T04:36:41.306Z,4.50
2023-05-22T04:37:41.191Z,4.20
2023-05-22T04:38:41.356Z,4.30
2023-05-22T04:39:41.306Z,4.50
2023-05-22T04:40:41.359Z,4.00
2023-05-22T04:41:41.422Z,4.10
2023-05-22T04:42:41.085Z,3.80
2023-05-22T04:43:41.234Z,4.40
2023-05-22T04:44:41.143Z,4.10
2023-05-22T04:45:41.007Z,4.20
2023-05-22T04:46:41.324Z,4.50
2023-05-22T04:47:41.052Z,4.70
2023-05-22T04:48:41.131Z,4.50
2023-05-22T04:49:40.970Z,4.50
2023-05-22T04:50:41.473Z,4.50
2023-05-22T04:51:40.994Z,4.20
2023-05-22T04:52:41.106Z,4.50
2023-05-22T04:53:45.500Z,4.10
2023-05-22T04:54:40.916Z,3.90
2023-05-22T04:55:41.047Z,3.80
2023-05-22T04:56:40.902Z,4.10
2023-05-22T04:57:41.046Z,4.60
2023-05-22T04:58:40.934Z,4.70
2023-05-22T04:59:40.939Z,4.30
2023-05-22T05:00:41.366Z,4.70
2023-05-22T05:01:41.317Z,4.70
2023-05-22T05:02:40.973Z,4.40
2023-05-22T05:03:41.048Z,5.00
2023-05-22T05:04:40.816Z,4.20
2023-05-22T05:05:40.989Z,4.50
2023-05-22T05:06:40.781Z,4.00
2023-05-22T05:07:40.913Z,5.00
2023-05-22T05:08:40.934Z,5.50
2023-05-22T05:09:41.637Z,4.30
2023-05-22T05:10:41.292Z,4.40
2023-05-22T05:11:40.812Z,4.50
2023-05-22T05:12:40.977Z,3.80
2023-05-22T05:13:40.762Z,4.70
2023-05-22T05:14:40.922Z,4.20
2023-05-22T05:15:40.850Z,4.30
2023-05-22T05:16:41.382Z,3.80
2023-05-22T05:17:40.909Z,4.00
2023-05-22T05:18:40.893Z,4.40
2023-05-22T05:19:40.854Z,3.90
2023-05-22T05:20:41.057Z,4.10
2023-05-22T05:21:40.602Z,4.20
2023-05-22T05:22:40.828Z,4.30
2023-05-22T05:23:40.559Z,4.30
2023-05-22T05:24:40.768Z,4.50
2023-05-22T05:25:40.534Z,4.60
2023-05-22T05:26:40.767Z,4.60
2023-05-22T05:27:40.514Z,5.40
2023-05-22T05:28:40.639Z,4.70
2023-05-22T05:29:40.487Z,4.50
2023-05-22T05:30:41.022Z,4.40
2023-05-22T05:31:40.615Z,4.50
2023-05-22T05:32:40.565Z,3.80
2023-05-22T05:33:40.569Z,4.30
2023-05-22T05:34:40.416Z,3.90
2023-05-22T05:35:42.819Z,4.40
2023-05-22T05:36:40.400Z,4.30
2023-05-22T05:37:40.524Z,4.40
2023-05-22T05:38:40.391Z,4.30
2023-05-22T05:39:40.602Z,4.20
2023-05-22T05:40:40.622Z,4.20
2023-05-22T05:41:40.431Z,4.60
2023-05-22T05:42:40.375Z,3.80
2023-05-22T05:43:40.520Z,4.30
2023-05-22T05:44:40.310Z,4.00
2023-05-22T05:45:40.398Z,4.30
2023-05-22T05:46:40.380Z,4.00
2023-05-22T05:47:40.334Z,4.50
2023-05-22T05:48:40.385Z,3.90
2023-05-22T05:49:40.255Z,4.40
2023-05-22T05:50:40.705Z,4.00
2023-05-22T05:51:40.210Z,4.20
2023-05-22T05:52:40.342Z,4.40
2023-05-22T05:53:40.265Z,4.00
2023-05-22T05:54:40.335Z,4.00
2023-05-22T05:55:40.143Z,4.50
2023-05-22T05:56:40.271Z,4.60
2023-05-22T05:57:40.125Z,4.70
2023-05-22T05:58:40.241Z,4.50
2023-05-22T05:59:40.129Z,4.10
2023-05-22T06:00:40.506Z,4.30
2023-05-22T06:01:40.066Z,4.00
2023-05-22T06:02:40.242Z,4.80
2023-05-22T06:03:40.253Z,4.00
2023-05-22T06:04:40.628Z,3.70
2023-05-22T06:05:40.676Z,4.80
2023-05-22T06:06:40.303Z,4.00
2023-05-22T06:07:40.630Z,4.00
2023-05-22T06:08:40.519Z,4.40
2023-05-22T06:09:40.049Z,4.00
2023-05-22T06:10:40.765Z,3.70
2023-05-22T06:11:40.314Z,4.10
2023-05-22T06:12:41.170Z,4.20
2023-05-22T06:13:40.300Z,4.60
2023-05-22T06:14:40.416Z,4.30
2023-05-22T06:15:40.098Z,4.20
2023-05-22T06:16:40.739Z,4.10
2023-05-22T06:17:40.294Z,4.30
2023-05-22T06:18:40.066Z,3.80
2023-05-22T06:19:40.390Z,4.40
2023-05-22T06:20:40.868Z,3.90
2023-05-22T06:21:40.671Z,4.00
2023-05-22T06:22:40.269Z,4.00
2023-05-22T06:23:40.003Z,4.40
2023-05-22T06:24:40.023Z,4.80
2023-05-22T06:25:40.862Z,4.00
2023-05-22T06:26:40.378Z,4.10
2023-05-22T06:27:40.384Z,3.90
2023-05-22T06:28:39.785Z,4.40
2023-05-22T06:29:39.973Z,4.30
2023-05-22T06:30:40.532Z,4.00
2023-05-22T06:31:39.905Z,4.30
2023-05-22T06:32:40.498Z,3.90
2023-05-22T06:33:40.187Z,4.20
2023-05-22T06:34:39.818Z,4.40
2023-05-22T06:35:40.004Z,4.20
2023-05-22T06:36:39.952Z,4.00
2023-05-22T06:37:39.867Z,4.50
2023-05-22T06:38:39.785Z,4.40
2023-05-22T06:39:40.022Z,4.20
2023-05-22T06:40:40.773Z,4.70
2023-05-22T06:41:40.372Z,4.00
2023-05-22T06:42:40.111Z,4.30
2023-05-22T06:43:40.390Z,3.90
2023-05-22T06:44:40.280Z,4.00
2023-05-22T06:45:40.335Z,4.00
2023-05-22T06:46:40.158Z,3.60
2023-05-22T06:47:39.950Z,3.90
2023-05-22T06:48:40.100Z,4.10
2023-05-22T06:49:40.601Z,3.80
2023-05-22T06:50:39.864Z,4.40
2023-05-22T06:51:40.219Z,4.40
2023-05-22T06:52:39.946Z,4.20
2023-05-22T06:53:40.479Z,4.20
2023-05-22T06:54:39.736Z,4.50
2023-05-22T06:55:39.982Z,4.50
2023-05-22T06:56:39.722Z,4.50
2023-05-22T06:57:39.869Z,3.80
2023-05-22T06:58:39.683Z,4.30
2023-05-22T06:59:40.103Z,4.50
2023-05-22T07:00:40.031Z,4.50
2023-05-22T07:01:40.083Z,3.90
2023-05-22T07:02:39.412Z,4.00
2023-05-22T07:03:39.834Z,4.30
2023-05-22T07:04:39.584Z,3.90
2023-05-22T07:05:40.140Z,4.30
2023-05-22T07:06:39.996Z,3.70
2023-05-22T07:07:39.517Z,4.20
2023-05-22T07:08:39.495Z,4.00
2023-05-22T07:09:39.748Z,3.80
2023-05-22T07:10:39.714Z,3.90
2023-05-22T07:11:39.970Z,4.50
2023-05-22T07:12:40.160Z,4.20
2023-05-22T07:13:39.282Z,4.10
2023-05-22T07:14:39.458Z,4.40
2023-05-22T07:15:39.668Z,4.80
2023-05-22T07:16:40.044Z,4.80
2023-05-22T07:17:39.784Z,4.40
2023-05-22T07:18:39.821Z,4.20
2023-05-22T07:19:39.372Z,3.90
2023-05-22T07:20:39.784Z,4.30
2023-05-22T07:21:39.336Z,4.00
2023-05-22T07:22:39.560Z,4.30
2023-05-22T07:23:39.054Z,4.20
2023-05-22T07:24:39.772Z,4.20
2023-05-22T07:25:39.919Z,4.10
2023-05-22T07:26:39.373Z,3.60
2023-05-22T07:27:39.672Z,3.90
2023-05-22T07:28:39.233Z,4.50
2023-05-22T07:29:40.158Z,4.20
2023-05-22T07:30:39.390Z,4.30
2023-05-22T07:31:39.303Z,4.40
2023-05-22T07:32:39.640Z,4.30
2023-05-22T07:33:39.483Z,4.00
2023-05-22T07:34:39.649Z,4.40
2023-05-22T07:35:39.285Z,4.30
2023-05-22T07:36:39.558Z,4.40
2023-05-22T07:37:39.628Z,4.40
2023-05-22T07:38:39.056Z,4.20
2023-05-22T07:39:39.302Z,4.60
2023-05-22T07:40:39.801Z,4.20
2023-05-22T07:41:39.416Z,4.60
2023-05-22T07:42:39.876Z,4.60
2023-05-22T07:43:39.267Z,4.50
2023-05-22T07:44:38.949Z,4.50
2023-05-22T07:45:39.239Z,4.20
2023-05-22T07:46:39.093Z,4.10
2023-05-22T07:47:38.846Z,4.40
2023-05-22T07:48:39.027Z,5.10
2023-05-22T07:49:38.701Z,4.10
2023-05-22T07:50:39.021Z,4.50
2023-05-22T07:51:38.696Z,4.30
2023-05-22T07:52:38.983Z,4.50
2023-05-22T07:53:38.660Z,4.20
2023-05-22T07:54:39.093Z,4.80
2023-05-22T07:55:38.859Z,4.00
2023-05-22T07:56:38.726Z,4.70
2023-05-22T07:57:38.592Z,4.40
2023-05-22T07:58:38.790Z,4.50
2023-05-22T07:59:38.607Z,5.20
2023-05-22T08:00:38.818Z,5.20
2023-05-22T08:01:38.605Z,4.40
2023-05-22T08:02:38.943Z,4.30
2023-05-22T08:03:38.625Z,4.30
2023-05-22T08:04:38.867Z,4.40
2023-05-22T08:05:38.584Z,4.60
2023-05-22T08:06:38.589Z,4.50
2023-05-22T08:07:38.585Z,4.50
2023-05-22T08:08:38.537Z,4.40
2023-05-22T08:09:38.581Z,4.30
2023-05-22T08:11:39.870Z,4.10
2023-05-22T08:12:38.590Z,4.80
2023-05-22T08:13:38.555Z,4.00
2023-05-22T08:14:38.466Z,4.20
2023-05-22T08:15:38.747Z,4.10
2023-05-22T08:16:38.410Z,4.30
2023-05-22T08:17:38.525Z,4.40
2023-05-22T08:18:38.414Z,4.30
2023-05-22T08:19:39.622Z,4.10
2023-05-22T08:20:38.879Z,4.90
2023-05-22T08:21:38.397Z,4.80
2023-05-22T08:22:38.373Z,3.70
2023-05-22T08:23:44.532Z,5.00
2023-05-22T08:24:38.600Z,4.20
2023-05-22T08:25:38.379Z,4.90
2023-05-22T08:26:38.421Z,4.50
2023-05-22T08:27:38.305Z,4.30
2023-05-22T08:28:38.377Z,4.60
2023-05-22T08:29:38.526Z,4.80
2023-05-22T08:30:38.609Z,4.50
2023-05-22T08:31:38.356Z,5.20
2023-05-22T08:32:38.638Z,5.00
2023-05-22T08:33:38.358Z,4.50
2023-05-22T08:34:38.152Z,4.20
2023-05-22T08:35:38.245Z,4.40
2023-05-22T08:36:38.152Z,4.40
2023-05-22T08:37:38.156Z,4.30
2023-05-22T08:38:38.093Z,4.40
2023-05-22T08:39:38.247Z,4.00
2023-05-22T08:40:38.638Z,4.30
2023-05-22T08:41:38.151Z,4.50
2023-05-22T08:42:38.234Z,4.60
2023-05-22T08:43:38.049Z,4.80
2023-05-22T08:44:38.148Z,4.70
2023-05-22T08:45:38.302Z,4.20
2023-05-22T08:46:38.162Z,4.70
2023-05-22T08:47:38.131Z,4.60
2023-05-22T08:48:37.947Z,4.80
2023-05-22T08:49:38.114Z,4.90
2023-05-22T08:50:38.044Z,4.60
2023-05-22T08:51:38.128Z,4.90
2023-05-22T08:52:37.920Z,4.60
2023-05-22T08:53:37.986Z,4.30
2023-05-22T08:54:38.019Z,4.50
2023-05-22T08:55:37.879Z,4.50
2023-05-22T08:56:45.653Z,4.90
2023-05-22T08:57:37.892Z,5.30
2023-05-22T08:58:38.079Z,4.60
2023-05-22T08:59:37.829Z,4.70
2023-05-22T09:00:38.139Z,4.80
2023-05-22T09:01:37.961Z,4.40
2023-05-22T09:02:37.994Z,5.40
2023-05-22T09:03:37.866Z,4.80
2023-05-22T09:04:37.837Z,4.60
2023-05-22T09:05:37.806Z,4.90
2023-05-22T09:06:38.163Z,4.60
2023-05-22T09:07:38.725Z,4.30
2023-05-22T09:08:38.231Z,4.60
2023-05-22T09:09:38.062Z,4.70
2023-05-22T09:10:38.569Z,4.50
2023-05-22T09:11:37.701Z,3.80
2023-05-22T09:12:38.026Z,4.40
2023-05-22T09:13:37.689Z,4.40
2023-05-22T09:14:37.713Z,4.40
2023-05-22T09:15:38.039Z,4.60
2023-05-22T09:16:37.727Z,4.40
2023-05-22T09:17:37.787Z,4.50
2023-05-22T09:18:37.627Z,4.10
2023-05-22T09:19:37.936Z,4.20
2023-05-22T09:20:38.254Z,3.90
2023-05-22T09:21:37.576Z,3.90
2023-05-22T09:22:37.857Z,4.40
2023-05-22T09:23:37.666Z,4.90
2023-05-22T09:24:37.626Z,4.50
2023-05-22T09:25:37.519Z,4.90
2023-05-22T09:26:37.638Z,4.20
2023-05-22T09:27:37.478Z,4.60
2023-05-22T09:28:37.533Z,4.90
2023-05-22T09:29:37.483Z,4.70
2023-05-22T09:30:37.750Z,4.60
2023-05-22T09:31:37.481Z,4.50
2023-05-22T09:32:37.627Z,4.80
2023-05-22T09:33:37.417Z,5.40
2023-05-22T09:34:37.492Z,4.30
2023-05-22T09:35:37.412Z,4.90
2023-05-22T09:36:37.500Z,4.80
2023-05-22T09:37:37.414Z,4.50
2023-05-22T09:38:37.378Z,4.80
2023-05-22T09:39:37.376Z,4.50
2023-05-22T09:40:37.638Z,4.50
2023-05-22T09:41:37.513Z,4.10
2023-05-22T09:42:37.504Z,4.60
2023-05-22T09:43:37.314Z,4.60
2023-05-22T09:44:37.305Z,4.20
2023-05-22T09:45:37.633Z,4.20
2023-05-22T09:46:37.377Z,4.20
2023-05-22T09:47:37.483Z,4.20
2023-05-22T09:48:37.605Z,3.90
2023-05-22T09:49:37.423Z,4.20
2023-05-22T09:50:37.307Z,4.00
2023-05-22T09:51:37.314Z,4.10
2023-05-22T09:52:37.344Z,4.60
2023-05-22T09:53:37.372Z,4.00
2023-05-22T09:54:37.387Z,4.30
2023-05-22T09:55:37.642Z,4.40
2023-05-22T09:56:39.797Z,4.10
2023-05-22T09:57:37.289Z,4.00
2023-05-22T09:58:37.097Z,4.50
2023-05-22T09:59:37.288Z,4.30
2023-05-22T10:00:37.553Z,4.30
2023-05-22T10:01:37.172Z,3.80
2023-05-22T10:02:37.158Z,4.10
2023-05-22T10:03:37.040Z,4.40
2023-05-22T10:04:37.085Z,4.50
2023-05-22T10:05:37.070Z,3.80
2023-05-22T10:06:37.031Z,4.50
2023-05-22T10:07:37.051Z,4.20
2023-05-22T10:08:36.970Z,4.30
2023-05-22T10:09:37.106Z,3.90
2023-05-22T10:10:36.951Z,4.00
2023-05-22T10:11:37.056Z,3.90
2023-05-22T10:12:36.929Z,3.50
2023-05-22T10:13:37.129Z,4.00
2023-05-22T10:14:36.948Z,4.30
2023-05-22T10:15:36.965Z,4.20
2023-05-22T10:16:37.015Z,3.90
2023-05-22T10:17:36.962Z,4.00
2023-05-22T10:18:36.832Z,4.10
2023-05-22T10:19:38.735Z,4.10
2023-05-22T10:20:36.868Z,4.30
2023-05-22T10:21:37.063Z,4.10
2023-05-22T10:22:36.773Z,3.90
2023-05-22T10:23:36.906Z,4.50
2023-05-22T10:24:36.730Z,3.70
2023-05-22T10:25:37.011Z,4.20
2023-05-22T10:26:36.750Z,3.50
2023-05-22T10:27:36.949Z,3.80
2023-05-22T10:28:36.808Z,4.20
2023-05-22T10:29:36.761Z,4.00
2023-05-22T10:30:36.894Z,4.00
2023-05-22T10:31:38.352Z,3.50
2023-05-22T10:32:36.872Z,4.50
2023-05-22T10:33:36.693Z,4.00
2023-05-22T10:34:36.646Z,4.10
2023-05-22T10:35:36.682Z,3.60
2023-05-22T10:36:36.883Z,4.00
2023-05-22T10:37:36.652Z,4.00
2023-05-22T10:38:36.677Z,3.90
2023-05-22T10:39:36.579Z,4.00
2023-05-22T10:40:36.692Z,4.70
2023-05-22T10:41:36.680Z,3.90
2023-05-22T10:42:36.712Z,4.10
2023-05-22T10:43:36.576Z,4.30
2023-05-22T10:44:36.627Z,4.00
2023-05-22T10:45:36.574Z,4.10
2023-05-22T10:46:36.596Z,4.70
2023-05-22T10:47:36.513Z,4.40
2023-05-22T10:48:36.534Z,3.80
2023-05-22T10:49:36.547Z,4.30
2023-05-22T10:50:36.467Z,4.40
2023-05-22T10:51:36.518Z,4.00
2023-05-22T10:52:36.410Z,4.10
2023-05-22T10:53:36.523Z,3.90
2023-05-22T10:54:36.402Z,3.80
2023-05-22T10:55:36.383Z,4.00
2023-05-22T10:56:37.104Z,4.20
2023-05-22T10:57:36.453Z,4.50
2023-05-22T10:58:36.323Z,4.00
2023-05-22T10:59:36.452Z,3.90
2023-05-22T11:00:36.284Z,3.90
2023-05-22T11:01:36.443Z,3.70
2023-05-22T11:02:36.285Z,3.70
2023-05-22T11:03:36.506Z,3.70
2023-05-22T11:04:36.234Z,4.10
2023-05-22T11:05:36.418Z,4.00
2023-05-22T11:06:36.222Z,4.20
2023-05-22T11:07:36.498Z,3.90
2023-05-22T11:08:36.380Z,4.30
2023-05-22T11:09:36.302Z,3.90
2023-05-22T11:10:36.170Z,4.10
2023-05-22T11:11:36.329Z,3.70
2023-05-22T11:12:36.172Z,3.90
2023-05-22T11:13:36.279Z,4.40
2023-05-22T11:14:36.166Z,3.40
2023-05-22T11:15:36.399Z,4.70
2023-05-22T11:16:36.134Z,4.30
2023-05-22T11:17:36.186Z,4.00
2023-05-22T11:18:36.095Z,3.70
2023-05-22T11:19:36.332Z,4.40
2023-05-22T11:20:36.071Z,3.90
2023-05-22T11:21:36.221Z,4.00
2023-05-22T11:22:36.085Z,4.30
2023-05-22T11:23:36.213Z,4.20
2023-05-22T11:24:36.188Z,3.60
2023-05-22T11:25:36.348Z,4.20
2023-05-22T11:26:36.128Z,4.10
2023-05-22T11:27:36.042Z,4.10
2023-05-22T11:28:36.118Z,4.00
2023-05-22T11:29:35.945Z,4.10
2023-05-22T11:30:36.071Z,3.80
2023-05-22T11:31:36.130Z,3.80
2023-05-22T11:32:35.945Z,3.80
2023-05-22T11:33:36.136Z,3.70
2023-05-22T11:34:35.889Z,3.70
2023-05-22T11:35:36.153Z,4.10
2023-05-22T11:36:35.846Z,3.90
2023-05-22T11:37:36.456Z,3.60
2023-05-22T11:38:36.135Z,3.90
2023-05-22T11:39:36.078Z,3.70
2023-05-22T11:40:35.815Z,3.60
2023-05-22T11:41:35.902Z,3.30
2023-05-22T11:42:35.890Z,3.40
2023-05-22T11:43:35.981Z,3.40
2023-05-22T11:44:35.945Z,3.10
2023-05-22T11:45:36.079Z,3.10
2023-05-22T11:46:35.967Z,3.70
2023-05-22T11:47:35.908Z,3.60
2023-05-22T11:48:35.990Z,3.70
2023-05-22T11:49:36.122Z,3.80
2023-05-22T11:50:42.441Z,3.60
2023-05-22T11:51:35.682Z,3.80
2023-05-22T11:52:35.781Z,3.60
2023-05-22T11:53:36.195Z,3.80
2023-05-22T11:54:38.553Z,3.50
2023-05-22T11:55:35.741Z,3.60
2023-05-22T11:56:35.802Z,3.90
2023-05-22T11:57:35.741Z,3.50
2023-05-22T11:58:35.606Z,3.50
2023-05-22T11:59:35.580Z,3.70
2023-05-22T12:00:35.667Z,3.60
2023-05-22T12:01:35.567Z,3.60
2023-05-22T12:02:35.923Z,3.50
2023-05-22T12:03:35.849Z,4.10
2023-05-22T12:04:35.590Z,3.70
2023-05-22T12:05:35.569Z,3.50
2023-05-22T12:06:35.692Z,3.40
2023-05-22T12:07:35.468Z,3.80
2023-05-22T12:08:35.518Z,3.90
2023-05-22T12:09:36.006Z,4.80
2023-05-22T12:10:35.534Z,3.70
2023-05-22T12:11:35.432Z,3.70
2023-05-22T12:12:35.831Z,3.80
2023-05-22T12:13:35.404Z,3.60
2023-05-22T12:14:35.561Z,3.80
2023-05-22T12:15:35.385Z,3.60
2023-05-22T12:16:35.511Z,3.10
2023-05-22T12:17:35.429Z,3.20
2023-05-22T12:18:35.473Z,3.50
2023-05-22T12:19:35.393Z,3.30
2023-05-22T12:20:35.405Z,3.50
2023-05-22T12:21:35.321Z,3.50
2023-05-22T12:22:35.364Z,3.50
2023-05-22T12:23:35.271Z,3.60
2023-05-22T12:24:35.397Z,3.80
2023-05-22T12:25:35.243Z,3.70
2023-05-22T12:26:35.370Z,3.60
2023-05-22T12:27:36.645Z,3.80
2023-05-22T12:28:35.321Z,4.00
2023-05-22T12:29:35.174Z,4.20
2023-05-22T12:30:35.327Z,4.10
2023-05-22T12:31:35.158Z,3.60
2023-05-22T12:32:35.254Z,3.70
2023-05-22T12:33:35.145Z,4.30
2023-05-22T12:34:35.383Z,4.00
2023-05-22T12:35:35.132Z,4.20
2023-05-22T12:36:35.260Z,4.30
2023-05-22T12:37:35.155Z,4.00
2023-05-22T12:38:35.641Z,4.00
2023-05-22T12:39:35.163Z,4.10
2023-05-22T12:40:35.725Z,3.20
2023-05-22T12:41:35.224Z,3.60
2023-05-22T12:42:35.412Z,3.40
2023-05-22T12:43:35.075Z,3.20
2023-05-22T12:44:35.124Z,3.30
2023-05-22T12:45:35.105Z,3.80
2023-05-22T12:46:35.213Z,3.30
2023-05-22T12:47:35.033Z,3.10
2023-05-22T12:48:35.189Z,2.60
2023-05-22T12:49:34.920Z,3.40
2023-05-22T12:50:35.142Z,2.60
2023-05-22T12:51:34.976Z,3.40
2023-05-22T12:52:34.949Z,3.10
2023-05-22T12:53:34.887Z,3.40
2023-05-22T12:54:34.973Z,2.80
2023-05-22T12:55:34.875Z,3.00
2023-05-22T12:56:35.668Z,3.30
2023-05-22T12:57:34.801Z,3.20
2023-05-22T12:58:35.068Z,3.00
2023-05-22T12:59:34.812Z,2.80
2023-05-22T13:00:35.511Z,3.00
2023-05-22T13:01:34.781Z,2.90
2023-05-22T13:02:35.074Z,4.10
2023-05-22T13:03:35.021Z,3.10
2023-05-22T13:04:34.893Z,2.60
2023-05-22T13:05:34.841Z,2.80
2023-05-22T13:06:34.752Z,3.10
2023-05-22T13:07:34.968Z,3.20
2023-05-22T13:08:34.725Z,2.80
2023-05-22T13:09:34.805Z,2.90
2023-05-22T13:10:34.675Z,3.30
2023-05-22T13:11:34.800Z,3.10
2023-05-22T13:12:34.682Z,3.00
2023-05-22T13:13:34.800Z,2.90
2023-05-22T13:14:35.570Z,3.10
2023-05-22T13:15:34.755Z,3.00
2023-05-22T13:16:34.750Z,3.10
2023-05-22T13:17:34.646Z,3.20
2023-05-22T13:18:34.558Z,3.20
2023-05-22T13:19:35.035Z,2.70